createdAt,value
2018-10-06T00:00:46.182Z,60.14
2018-10-06T00:03:15.015Z,60.39
2018-10-06T00:05:43.975Z,60.11
2018-10-06T00:08:12.910Z,60.10
2018-10-06T00:10:41.717Z,60.42
2018-10-06T00:13:10.649Z,61.51
2018-10-06T00:15:39.583Z,61.30
2018-10-06T00:18:08.384Z,61.67
2018-10-06T00:20:37.221Z,61.72
2018-10-06T00:23:06.093Z,61.23
2018-10-06T00:25:34.894Z,61.90
2018-10-06T00:28:03.702Z,61.90
2018-10-06T00:30:32.660Z,61.67
2018-10-06T00:33:01.509Z,62.08
2018-10-06T00:35:30.305Z,61.83
2018-10-06T00:37:59.147Z,61.55
2018-10-06T00:40:28.065Z,61.65
2018-10-06T00:42:57.021Z,61.85
2018-10-06T00:45:26.145Z,62.41
2018-10-06T00:47:54.980Z,62.17
2018-10-06T00:50:23.860Z,63.09
2018-10-06T00:52:52.752Z,63.17
2018-10-06T00:55:21.605Z,62.54
2018-10-06T00:57:50.556Z,63.02
2018-10-06T01:00:19.444Z,62.94
2018-10-06T01:02:48.366Z,63.27
2018-10-06T01:05:17.584Z,63.40
2018-10-06T01:07:46.665Z,63.02
2018-10-06T01:10:15.572Z,62.75
2018-10-06T01:12:44.490Z,63.71
2018-10-06T01:15:13.381Z,63.56
2018-10-06T01:17:42.293Z,64.07
2018-10-06T01:20:11.192Z,64.20
2018-10-06T01:22:40.109Z,63.85
2018-10-06T01:25:08.973Z,63.96
2018-10-06T01:27:37.905Z,63.89
2018-10-06T01:30:06.858Z,63.93
2018-10-06T01:32:35.659Z,64.15
2018-10-06T01:35:04.569Z,64.06
2018-10-06T01:37:33.387Z,64.49
2018-10-06T01:40:02.334Z,64.12
2018-10-06T01:42:31.183Z,64.71
2018-10-06T01:45:00.048Z,65.53
2018-10-06T01:47:28.964Z,65.09
2018-10-06T01:49:57.854Z,64.57
2018-10-06T01:52:26.881Z,65.17
2018-10-06T01:54:55.818Z,65.64
2018-10-06T01:57:24.625Z,65.17
2018-10-06T01:59:53.461Z,65.41
2018-10-06T02:02:22.413Z,65.57
2018-10-06T02:04:51.276Z,65.65
2018-10-06T02:07:20.098Z,65.48
2018-10-06T02:09:48.905Z,65.67
2018-10-06T02:12:17.763Z,65.58
2018-10-06T02:14:46.661Z,65.58
2018-10-06T02:17:15.533Z,66.00
2018-10-06T02:19:44.352Z,66.25
2018-10-06T02:22:13.188Z,65.97
2018-10-06T02:24:42.085Z,66.19
2018-10-06T02:27:11.064Z,66.27
2018-10-06T02:29:40.004Z,66.59
2018-10-06T02:32:08.780Z,66.51
2018-10-06T02:34:37.609Z,66.53
2018-10-06T02:37:06.529Z,66.63
2018-10-06T02:39:35.357Z,67.01
2018-10-06T02:42:04.168Z,66.61
2018-10-06T02:44:32.979Z,67.20
2018-10-06T02:47:01.921Z,67.13
2018-10-06T02:49:30.881Z,66.98
2018-10-06T02:51:59.741Z,66.81
2018-10-06T02:54:28.585Z,67.46
2018-10-06T02:56:57.416Z,67.30
2018-10-06T02:59:26.207Z,66.83
2018-10-06T03:01:55.074Z,66.80
2018-10-06T03:04:23.879Z,66.97
2018-10-06T03:06:52.777Z,66.74
2018-10-06T03:09:21.705Z,67.30
2018-10-06T03:11:50.639Z,67.61
2018-10-06T03:14:19.552Z,67.73
2018-10-06T03:16:48.378Z,68.26
2018-10-06T03:19:17.327Z,67.63
2018-10-06T03:21:46.110Z,67.53
2018-10-06T03:24:14.917Z,67.63
2018-10-06T03:26:43.847Z,67.36
2018-10-06T03:29:12.713Z,67.25
2018-10-06T03:31:41.572Z,66.78
2018-10-06T03:34:10.388Z,66.85
2018-10-06T03:36:39.204Z,67.20
2018-10-06T03:39:08.497Z,67.56
2018-10-06T03:41:37.376Z,67.91
2018-10-06T03:44:06.215Z,67.54
2018-10-06T03:46:35.088Z,67.51
2018-10-06T03:49:03.879Z,66.69
2018-10-06T03:51:32.829Z,65.86
2018-10-06T03:54:01.756Z,66.29
2018-10-06T03:56:30.802Z,65.73
2018-10-06T03:58:59.711Z,66.28
2018-10-06T04:01:28.723Z,66.42
2018-10-06T04:03:57.673Z,66.55
2018-10-06T04:06:26.673Z,66.10
2018-10-06T04:08:55.472Z,66.56
2018-10-06T04:11:24.453Z,67.07
2018-10-06T04:13:53.324Z,67.07
2018-10-06T04:16:22.263Z,67.66
2018-10-06T04:18:51.088Z,67.51
2018-10-06T04:21:19.938Z,66.87
2018-10-06T04:23:48.809Z,67.28
2018-10-06T04:26:18.067Z,67.52
2018-10-06T04:28:46.885Z,66.77
2018-10-06T04:31:15.680Z,67.42
2018-10-06T04:33:44.638Z,67.28
2018-10-06T04:36:13.525Z,67.19
2018-10-06T04:38:42.412Z,66.91
2018-10-06T04:41:11.392Z,67.43
2018-10-06T04:43:40.347Z,67.10
2018-10-06T04:46:09.489Z,67.27
2018-10-06T04:48:38.380Z,67.51
2018-10-06T04:51:07.417Z,67.48
2018-10-06T04:53:36.302Z,67.27
2018-10-06T04:56:05.233Z,67.05
2018-10-06T04:58:34.145Z,66.99
2018-10-06T05:01:02.997Z,67.02
2018-10-06T05:03:31.905Z,67.21
2018-10-06T05:06:00.820Z,67.20
2018-10-06T05:08:29.638Z,67.78
2018-10-06T05:10:58.488Z,67.28
2018-10-06T05:13:27.324Z,67.51
2018-10-06T05:15:56.197Z,67.93
2018-10-06T05:18:25.173Z,67.61
2018-10-06T05:20:54.105Z,66.55
2018-10-06T05:23:23.066Z,66.68
2018-10-06T05:25:52.098Z,66.29
2018-10-06T05:28:20.991Z,65.90
2018-10-06T05:30:49.828Z,66.44
2018-10-06T05:33:18.651Z,65.38
2018-10-06T05:35:47.590Z,65.19
2018-10-06T05:38:16.685Z,66.19
2018-10-06T05:40:45.521Z,66.40
2018-10-06T05:43:14.349Z,66.47
2018-10-06T05:45:43.168Z,66.12
2018-10-06T05:48:12.037Z,66.16
2018-10-06T05:50:40.914Z,66.73
2018-10-06T05:53:09.729Z,66.45
2018-10-06T05:55:38.611Z,66.72
2018-10-06T05:58:07.498Z,66.71
2018-10-06T06:00:36.396Z,66.35
2018-10-06T06:03:05.317Z,66.60
2018-10-06T06:05:34.134Z,65.88
2018-10-06T06:08:02.988Z,65.93
2018-10-06T06:10:32.059Z,65.68
2018-10-06T06:13:01.099Z,64.99
2018-10-06T06:15:30.047Z,65.27
2018-10-06T06:17:59.090Z,65.15
2018-10-06T06:20:27.991Z,64.76
2018-10-06T06:22:56.808Z,64.65
2018-10-06T06:25:25.677Z,64.16
2018-10-06T06:27:54.658Z,63.47
2018-10-06T06:30:23.541Z,62.56
2018-10-06T06:32:52.408Z,62.42
2018-10-06T06:35:21.268Z,61.50
2018-10-06T06:37:50.672Z,61.61
2018-10-06T06:40:19.528Z,62.57
2018-10-06T06:42:48.381Z,61.59
2018-10-06T06:45:17.320Z,61.62
2018-10-06T06:47:46.151Z,61.29
2018-10-06T06:50:15.142Z,62.10
2018-10-06T06:52:47.465Z,61.56
2018-10-06T06:55:16.484Z,62.50
2018-10-06T06:57:45.687Z,62.47
2018-10-06T07:00:15.025Z,62.54
2018-10-06T07:02:44.356Z,62.51
2018-10-06T07:05:13.221Z,62.89
2018-10-06T07:07:42.297Z,62.25
2018-10-06T07:10:11.292Z,62.49
2018-10-06T07:12:40.242Z,62.03
2018-10-06T07:15:11.098Z,62.02
2018-10-06T07:17:39.986Z,61.88
2018-10-06T07:20:08.848Z,61.76
2018-10-06T07:22:37.690Z,61.47
2018-10-06T07:25:06.892Z,61.10
2018-10-06T07:27:35.804Z,60.84
2018-10-06T07:30:06.189Z,60.78
2018-10-06T07:32:35.039Z,61.06
2018-10-06T07:35:04.478Z,60.33
2018-10-06T07:37:33.456Z,60.84
2018-10-06T07:40:02.768Z,60.43
2018-10-06T07:42:31.620Z,59.56
2018-10-06T07:45:00.541Z,58.92
2018-10-06T07:47:29.522Z,59.25
2018-10-06T07:49:58.574Z,58.91
2018-10-06T07:52:27.479Z,58.58
2018-10-06T07:54:56.425Z,58.98
2018-10-06T07:57:25.433Z,57.86
2018-10-06T07:59:54.352Z,58.65
2018-10-06T08:02:23.249Z,58.18
2018-10-06T08:04:52.037Z,58.20
2018-10-06T08:07:20.941Z,58.59
2018-10-06T08:09:50.577Z,58.74
2018-10-06T08:12:20.962Z,57.75
2018-10-06T08:14:49.992Z,57.89
2018-10-06T08:17:19.056Z,57.48
2018-10-06T08:19:48.410Z,56.93
2018-10-06T08:22:17.716Z,57.78
2018-10-06T08:24:46.516Z,57.98
2018-10-06T08:27:15.352Z,57.94
2018-10-06T08:29:44.279Z,56.92
2018-10-06T08:32:13.132Z,56.98
2018-10-06T08:34:41.919Z,56.45
2018-10-06T08:37:10.728Z,56.49
2018-10-06T08:39:39.591Z,55.47
2018-10-06T08:42:08.483Z,56.31
2018-10-06T08:44:37.345Z,55.93
2018-10-06T08:47:06.225Z,55.69
2018-10-06T08:49:35.112Z,54.90
2018-10-06T08:52:03.895Z,54.60
2018-10-06T08:54:32.943Z,54.13
2018-10-06T08:57:01.807Z,54.61
2018-10-06T08:59:30.604Z,53.50
2018-10-06T09:01:59.469Z,53.90
2018-10-06T09:04:28.420Z,53.17
2018-10-06T09:06:57.365Z,53.40
2018-10-06T09:09:26.988Z,53.32
2018-10-06T09:11:55.852Z,53.92
2018-10-06T09:14:24.710Z,53.63
2018-10-06T09:16:53.525Z,52.54
2018-10-06T09:19:22.309Z,53.18
2018-10-06T09:21:51.168Z,53.04
2018-10-06T09:24:20.341Z,52.43
2018-10-06T09:26:49.297Z,52.39
2018-10-06T09:29:18.080Z,52.63
2018-10-06T09:31:47.018Z,51.92
2018-10-06T09:34:15.997Z,52.85
2018-10-06T09:36:44.925Z,52.03
2018-10-06T09:39:13.999Z,52.10
2018-10-06T09:41:42.941Z,51.49
2018-10-06T09:44:11.773Z,51.58
2018-10-06T09:46:40.716Z,51.85
2018-10-06T09:49:09.595Z,51.48
2018-10-06T09:51:38.562Z,51.46
2018-10-06T09:54:07.511Z,50.40
2018-10-06T09:56:36.397Z,50.16
2018-10-06T09:59:05.223Z,50.69
2018-10-06T10:01:39.139Z,50.78
2018-10-06T10:04:11.008Z,49.21
2018-10-06T10:06:40.836Z,48.97
2018-10-06T10:09:11.787Z,48.70
2018-10-06T10:11:40.630Z,48.88
2018-10-06T10:14:10.034Z,48.91
2018-10-06T10:16:38.870Z,48.31
2018-10-06T10:19:07.997Z,48.23
2018-10-06T10:21:36.864Z,48.29
2018-10-06T10:24:05.860Z,48.43
2018-10-06T10:26:35.005Z,48.41
2018-10-06T10:29:03.883Z,48.67
2018-10-06T10:31:32.795Z,47.94
2018-10-06T10:34:01.696Z,47.20
2018-10-06T10:36:30.559Z,47.23
2018-10-06T10:38:59.349Z,47.39
2018-10-06T10:41:28.236Z,47.87
2018-10-06T10:43:57.130Z,47.15
2018-10-06T10:46:26.116Z,47.14
2018-10-06T10:48:55.134Z,47.11
2018-10-06T10:51:24.021Z,47.83
2018-10-06T10:53:52.940Z,46.18
2018-10-06T10:56:21.825Z,46.01
2018-10-06T10:58:50.806Z,46.34
2018-10-06T11:01:26.020Z,47.02
2018-10-06T11:03:54.927Z,46.76
2018-10-06T11:06:23.923Z,46.96
2018-10-06T11:08:52.800Z,46.65
2018-10-06T11:11:22.646Z,46.29
2018-10-06T11:13:51.726Z,46.13
2018-10-06T11:16:20.740Z,45.51
2018-10-06T11:18:49.569Z,44.86
2018-10-06T11:21:18.377Z,45.37
2018-10-06T11:23:47.196Z,46.35
2018-10-06T11:26:16.249Z,46.14
2018-10-06T11:28:45.024Z,45.04
2018-10-06T11:31:13.893Z,45.39
2018-10-06T11:33:42.755Z,44.61
2018-10-06T11:36:11.585Z,44.49
2018-10-06T11:38:40.436Z,44.74
2018-10-06T11:41:09.292Z,44.51
2018-10-06T11:43:38.264Z,44.19
2018-10-06T11:46:07.143Z,44.76
2018-10-06T11:48:35.949Z,44.51
2018-10-06T11:51:04.815Z,44.17
2018-10-06T11:53:33.676Z,43.42
2018-10-06T11:56:02.461Z,43.99
2018-10-06T11:58:31.376Z,44.17
2018-10-06T12:01:06.603Z,44.42
2018-10-06T12:03:35.542Z,43.84
2018-10-06T12:06:04.371Z,43.97
2018-10-06T12:08:33.205Z,44.35
2018-10-06T12:11:02.031Z,43.53
2018-10-06T12:13:30.869Z,43.56
2018-10-06T12:16:00.018Z,43.55
2018-10-06T12:18:28.865Z,43.74
2018-10-06T12:20:57.787Z,43.51
2018-10-06T12:23:26.681Z,43.17
2018-10-06T12:25:55.545Z,43.57
2018-10-06T12:28:24.517Z,43.02
2018-10-06T12:30:53.621Z,42.77
2018-10-06T12:33:23.346Z,43.08
2018-10-06T12:35:52.149Z,42.81
2018-10-06T12:38:21.005Z,42.70
2018-10-06T12:40:49.865Z,42.74
2018-10-06T12:43:18.666Z,43.31
2018-10-06T12:45:47.543Z,43.28
2018-10-06T12:48:16.387Z,42.21
2018-10-06T12:50:45.266Z,42.33
2018-10-06T12:53:14.138Z,43.18
2018-10-06T12:55:42.951Z,42.89
2018-10-06T12:58:11.801Z,43.60
2018-10-06T13:00:40.649Z,42.45
2018-10-06T13:03:09.435Z,42.14
2018-10-06T13:05:38.325Z,42.18
2018-10-06T13:08:07.129Z,42.26
2018-10-06T13:10:35.923Z,42.75
2018-10-06T13:13:04.737Z,43.02
2018-10-06T13:15:33.665Z,41.83
2018-10-06T13:18:02.509Z,41.76
2018-10-06T13:20:31.364Z,42.38
2018-10-06T13:23:00.192Z,42.05
2018-10-06T13:25:29.049Z,41.62
2018-10-06T13:27:57.934Z,41.35
2018-10-06T13:30:26.836Z,42.28
2018-10-06T13:32:55.711Z,41.03
2018-10-06T13:35:24.569Z,41.93
2018-10-06T13:37:53.524Z,41.39
2018-10-06T13:40:22.415Z,41.96
2018-10-06T13:42:51.893Z,41.92
2018-10-06T13:45:20.777Z,41.44
2018-10-06T13:47:49.654Z,41.92
2018-10-06T13:50:18.482Z,42.01
2018-10-06T13:52:47.342Z,42.08
2018-10-06T13:55:16.201Z,42.03
2018-10-06T13:57:45.090Z,40.66
2018-10-06T14:00:14.029Z,40.94
2018-10-06T14:02:43.344Z,41.00
2018-10-06T14:05:12.196Z,40.98
2018-10-06T14:07:41.149Z,41.34
2018-10-06T14:10:09.937Z,40.90
2018-10-06T14:12:38.700Z,40.92
2018-10-06T14:15:07.611Z,40.17
2018-10-06T14:17:36.493Z,41.10
2018-10-06T14:20:05.379Z,40.06
2018-10-06T14:22:34.244Z,40.70
2018-10-06T14:25:03.052Z,39.44
2018-10-06T14:27:31.941Z,39.25
2018-10-06T14:30:00.882Z,39.01
2018-10-06T14:32:29.723Z,39.04
2018-10-06T14:34:58.785Z,38.89
2018-10-06T14:37:27.638Z,38.90
2018-10-06T14:39:56.529Z,38.30
2018-10-06T14:42:25.371Z,38.02
2018-10-06T14:44:54.264Z,38.35
2018-10-06T14:47:23.100Z,38.34
2018-10-06T14:49:52.071Z,39.07
2018-10-06T14:52:20.956Z,40.12
2018-10-06T14:54:49.915Z,40.58
2018-10-06T14:57:18.732Z,40.00
2018-10-06T14:59:47.556Z,40.23
2018-10-06T15:02:16.405Z,40.86
2018-10-06T15:04:45.308Z,40.32
2018-10-06T15:07:14.167Z,39.37
2018-10-06T15:09:43.042Z,39.93
2018-10-06T15:12:11.841Z,39.74
2018-10-06T15:14:40.616Z,40.47
2018-10-06T15:17:09.474Z,39.74
2018-10-06T15:19:38.365Z,39.83
2018-10-06T15:22:07.211Z,40.50
2018-10-06T15:24:36.092Z,39.68
2018-10-06T15:27:04.989Z,40.43
2018-10-06T15:29:33.828Z,40.65
2018-10-06T15:32:02.642Z,40.56
2018-10-06T15:34:31.465Z,39.29
2018-10-06T15:37:00.213Z,39.60
2018-10-06T15:39:29.030Z,39.92
2018-10-06T15:41:57.816Z,39.30
2018-10-06T15:44:26.661Z,39.70
2018-10-06T15:46:55.482Z,40.09
2018-10-06T15:49:24.321Z,40.25
2018-10-06T15:51:53.157Z,40.00
2018-10-06T15:54:21.980Z,40.07
2018-10-06T15:56:50.900Z,40.55
2018-10-06T15:59:19.836Z,40.80
2018-10-06T16:01:48.912Z,41.33
2018-10-06T16:04:17.967Z,41.81
2018-10-06T16:06:47.040Z,41.82
2018-10-06T16:09:15.894Z,42.49
2018-10-06T16:11:44.706Z,42.19
2018-10-06T16:14:13.533Z,42.47
2018-10-06T16:16:42.345Z,42.41
2018-10-06T16:19:11.137Z,43.27
2018-10-06T16:21:40.092Z,42.93
2018-10-06T16:24:09.025Z,43.55
2018-10-06T16:26:37.891Z,42.97
2018-10-06T16:29:06.870Z,43.79
2018-10-06T16:31:35.877Z,44.12
2018-10-06T16:34:04.821Z,44.42
2018-10-06T16:36:33.764Z,43.75
2018-10-06T16:39:02.901Z,43.60
2018-10-06T16:41:31.737Z,43.17
2018-10-06T16:44:00.597Z,44.36
2018-10-06T16:46:29.541Z,44.21
2018-10-06T16:48:58.440Z,44.42
2018-10-06T16:51:27.219Z,43.81
2018-10-06T16:53:56.019Z,44.30
2018-10-06T16:56:25.202Z,44.71
2018-10-06T16:58:53.982Z,43.93
2018-10-06T17:01:22.908Z,43.70
2018-10-06T17:03:51.889Z,43.84
2018-10-06T17:06:20.856Z,43.78
2018-10-06T17:08:49.825Z,44.42
2018-10-06T17:11:18.662Z,43.94
2018-10-06T17:13:47.499Z,43.76
2018-10-06T17:16:16.383Z,43.75
2018-10-06T17:18:45.197Z,41.94
2018-10-06T17:21:14.403Z,41.81
2018-10-06T17:23:44.225Z,43.29
2018-10-06T17:26:13.518Z,42.60
2018-10-06T17:28:42.529Z,42.59
2018-10-06T17:31:11.374Z,42.60
2018-10-06T17:33:40.303Z,43.36
2018-10-06T17:36:09.172Z,42.60
2018-10-06T17:38:38.096Z,42.89
2018-10-06T17:41:07.153Z,42.88
2018-10-06T17:43:36.025Z,43.89
2018-10-06T17:46:05.064Z,43.11
2018-10-06T17:48:33.872Z,43.53
2018-10-06T17:51:02.873Z,43.95
2018-10-06T17:53:37.176Z,44.55
2018-10-06T17:56:06.228Z,44.82
2018-10-06T17:58:35.216Z,44.93
2018-10-06T18:01:04.560Z,45.75
2018-10-06T18:03:33.361Z,45.40
2018-10-06T18:06:02.230Z,45.74
2018-10-06T18:08:31.049Z,46.95
2018-10-06T18:10:59.849Z,47.64
2018-10-06T18:13:28.701Z,47.84
2018-10-06T18:15:57.537Z,47.91
2018-10-06T18:18:26.379Z,48.17
2018-10-06T18:20:55.228Z,47.84
2018-10-06T18:23:24.071Z,48.13
2018-10-06T18:25:52.983Z,48.58
2018-10-06T18:28:21.991Z,48.01
2018-10-06T18:30:50.848Z,47.83
2018-10-06T18:33:19.700Z,47.90
2018-10-06T18:35:48.490Z,47.68
2018-10-06T18:38:17.438Z,47.49
2018-10-06T18:40:46.324Z,48.13
2018-10-06T18:43:15.429Z,48.65
2018-10-06T18:45:44.291Z,48.59
2018-10-06T18:48:13.094Z,49.45
2018-10-06T18:50:41.926Z,49.97
2018-10-06T18:53:10.730Z,50.39
2018-10-06T18:55:39.656Z,51.23
2018-10-06T18:58:08.529Z,51.61
2018-10-06T19:00:37.412Z,52.71
2018-10-06T19:03:06.479Z,53.32
2018-10-06T19:05:35.466Z,53.95
2018-10-06T19:08:04.310Z,54.38
2018-10-06T19:10:33.213Z,55.36
2018-10-06T19:13:02.236Z,56.22
2018-10-06T19:15:31.360Z,56.16
2018-10-06T19:18:00.329Z,56.23
2018-10-06T19:20:29.175Z,55.90
2018-10-06T19:22:58.033Z,56.33
2018-10-06T19:25:26.982Z,56.46
2018-10-06T19:27:55.880Z,57.68
2018-10-06T19:30:24.837Z,57.43
2018-10-06T19:32:53.648Z,57.75
2018-10-06T19:35:22.429Z,57.83
2018-10-06T19:37:51.248Z,57.98
2018-10-06T19:40:20.054Z,58.56
2018-10-06T19:42:48.896Z,59.18
2018-10-06T19:45:17.765Z,59.43
2018-10-06T19:47:49.383Z,59.00
2018-10-06T19:50:18.262Z,59.77
2018-10-06T19:52:47.072Z,59.82
2018-10-06T19:55:15.960Z,60.06
2018-10-06T19:57:44.802Z,60.05
2018-10-06T20:00:13.644Z,60.30
2018-10-06T20:02:42.764Z,59.87
2018-10-06T20:05:17.889Z,60.37
2018-10-06T20:07:46.688Z,59.87
2018-10-06T20:10:15.523Z,59.90
2018-10-06T20:12:44.416Z,60.80
2018-10-06T20:15:13.274Z,60.34
2018-10-06T20:17:42.048Z,60.59
2018-10-06T20:20:10.892Z,60.82
2018-10-06T20:22:39.696Z,60.65
2018-10-06T20:25:08.482Z,60.78
2018-10-06T20:27:37.345Z,61.18
2018-10-06T20:30:07.881Z,61.19
2018-10-06T20:32:36.666Z,61.49
2018-10-06T20:35:05.540Z,61.33
2018-10-06T20:37:34.330Z,61.82
2018-10-06T20:40:03.165Z,61.98
2018-10-06T20:42:31.979Z,62.05
2018-10-06T20:45:00.783Z,62.40
2018-10-06T20:47:29.729Z,62.80
2018-10-06T20:49:58.593Z,62.33
2018-10-06T20:52:27.439Z,62.57
2018-10-06T20:54:56.228Z,62.96
2018-10-06T20:57:25.032Z,62.47
2018-10-06T20:59:53.893Z,62.80
2018-10-06T21:02:22.743Z,63.44
2018-10-06T21:04:51.520Z,62.71
2018-10-06T21:07:20.470Z,63.31
2018-10-06T21:09:49.289Z,63.29
2018-10-06T21:12:18.131Z,64.00
2018-10-06T21:14:46.984Z,63.11
2018-10-06T21:17:15.985Z,63.74
2018-10-06T21:19:44.788Z,63.28
2018-10-06T21:22:13.609Z,63.90
2018-10-06T21:24:42.413Z,63.42
2018-10-06T21:27:11.269Z,64.31
2018-10-06T21:29:40.261Z,64.15
2018-10-06T21:32:09.613Z,64.29
2018-10-06T21:34:38.478Z,64.41
2018-10-06T21:37:07.424Z,64.08
2018-10-06T21:39:36.209Z,64.73
2018-10-06T21:42:05.428Z,64.57
2018-10-06T21:44:34.219Z,64.57
2018-10-06T21:47:03.100Z,64.57
2018-10-06T21:49:31.921Z,65.15
2018-10-06T21:52:00.718Z,64.73
2018-10-06T21:54:29.567Z,64.97
2018-10-06T21:56:58.361Z,64.75
2018-10-06T21:59:27.156Z,64.57
2018-10-06T22:01:55.986Z,64.86
2018-10-06T22:04:24.829Z,65.25
2018-10-06T22:06:53.616Z,64.92
2018-10-06T22:09:22.518Z,65.47
2018-10-06T22:11:51.352Z,64.58
2018-10-06T22:14:20.193Z,65.29
2018-10-06T22:16:49.023Z,64.76
2018-10-06T22:19:17.792Z,64.35
2018-10-06T22:21:46.613Z,64.57
2018-10-06T22:24:15.380Z,64.17
2018-10-06T22:26:44.223Z,64.62
2018-10-06T22:29:13.180Z,64.53
2018-10-06T22:31:42.168Z,64.65
2018-10-06T22:34:10.969Z,64.46
2018-10-06T22:36:39.802Z,64.91
2018-10-06T22:39:09.796Z,64.94
2018-10-06T22:41:39.053Z,64.21
2018-10-06T22:44:07.854Z,64.42
2018-10-06T22:46:36.698Z,64.35
2018-10-06T22:49:05.572Z,64.39
2018-10-06T22:51:34.750Z,64.51
2018-10-06T22:54:03.560Z,64.99
2018-10-06T22:56:32.378Z,64.53
2018-10-06T22:59:01.201Z,64.44
2018-10-06T23:01:30.041Z,64.95
2018-10-06T23:03:58.848Z,65.04
2018-10-06T23:06:27.641Z,65.26
2018-10-06T23:08:56.392Z,65.42
2018-10-06T23:11:25.229Z,65.91
2018-10-06T23:13:54.045Z,65.24
2018-10-06T23:16:22.870Z,65.44
2018-10-06T23:18:51.687Z,66.15
2018-10-06T23:21:20.505Z,65.75
2018-10-06T23:23:49.403Z,66.05
2018-10-06T23:26:18.234Z,65.95
2018-10-06T23:28:47.124Z,66.22
2018-10-06T23:31:15.962Z,66.30
2018-10-06T23:33:44.913Z,66.45
2018-10-06T23:36:13.894Z,67.15
2018-10-06T23:38:42.684Z,67.25
2018-10-06T23:41:11.530Z,67.52
2018-10-06T23:43:40.387Z,67.33
2018-10-06T23:46:09.496Z,67.09
2018-10-06T23:48:38.308Z,67.05
2018-10-06T23:51:07.344Z,67.55
2018-10-06T23:53:36.144Z,67.95
2018-10-06T23:56:05.017Z,67.37
2018-10-06T23:58:33.914Z,67.94
